Time;durP1;ratioP1;P1;durP2;ratioP2;P2;SDS_P1;SDS_P2;PMS_P1;PMS_P2;Temp;Humidity;BMP_temperature;BMP_pressure;BME280_temperature;BME280_humidity;BME280_pressure;Samples;Min_cycle;Max_cycle;Signal;HPM_P1;HPM_P2
2022/06/11 00:00:11;;;;;;;5.90;5.40;;;15.90;99.90;;;;;;6063412;23;20444;-88
2022/06/11 00:02:38;;;;;;;6.23;5.73;;;15.90;99.90;;;;;;6063210;23;20632;-88
2022/06/11 00:05:07;;;;;;;5.80;5.30;;;15.90;99.90;;;;;;6063393;23;20517;-87
2022/06/11 00:07:36;;;;;;;6.97;6.13;;;15.80;99.90;;;;;;6064447;23;20537;-88
2022/06/11 00:10:05;;;;;;;6.63;5.97;;;15.80;99.90;;;;;;6063490;23;20432;-88
2022/06/11 00:12:33;;;;;;;6.90;6.30;;;15.80;99.90;;;;;;6037990;23;20441;-88
2022/06/11 00:15:00;;;;;;;6.50;5.90;;;15.80;99.90;;;;;;6037748;23;20565;-88
2022/06/11 00:17:27;;;;;;;5.90;5.30;;;15.70;99.90;;;;;;6063361;23;20439;-88
2022/06/11 00:19:55;;;;;;;8.03;5.77;;;15.70;99.90;;;;;;6063397;23;20519;-87
2022/06/11 00:22:23;;;;;;;7.03;6.33;;;15.80;99.90;;;;;;6063711;23;20529;-87
2022/06/11 00:24:52;;;;;;;6.50;5.90;;;15.70;99.90;;;;;;6063106;23;20792;-87
2022/06/11 00:27:20;;;;;;;6.10;5.50;;;15.70;99.90;;;;;;6062970;23;20439;-88
2022/06/11 00:29:49;;;;;;;7.20;6.27;;;15.70;99.90;;;;;;6063479;23;20443;-88
2022/06/11 00:32:16;;;;;;;6.50;6.00;;;15.60;99.90;;;;;;6063405;23;20488;-87
2022/06/11 00:34:44;;;;;;;6.23;5.63;;;15.60;99.90;;;;;;6063511;23;20463;-88
2022/06/11 00:37:13;;;;;;;8.10;5.90;;;15.60;99.90;;;;;;6062978;23;20525;-88
2022/06/11 00:39:41;;;;;;;6.33;5.50;;;15.50;99.90;;;;;;6063562;23;20437;-87
2022/06/11 00:42:14;;;;;;;6.43;5.67;;;15.50;99.90;;;;;;6038004;23;20442;-87
2022/06/11 00:44:41;;;;;;;6.97;6.30;;;15.40;99.90;;;;;;6063440;23;20546;-88
2022/06/11 00:47:15;;;;;;;5.97;5.40;;;15.40;99.90;;;;;;6062694;23;20447;-87
2022/06/11 00:49:46;;;;;;;6.50;6.00;;;15.20;99.90;;;;;;6063100;23;21170;-87
2022/06/11 00:52:25;;;;;;;6.10;5.53;;;15.20;99.90;;;;;;6063411;23;20458;-87
2022/06/11 00:54:59;;;;;;;6.17;5.67;;;15.10;99.90;;;;;;6063644;23;20545;-87
2022/06/11 00:57:31;;;;;;;6.63;6.07;;;15.00;99.90;;;;;;6062562;23;20451;-87
2022/06/11 01:00:05;;;;;;;6.83;5.70;;;14.90;99.90;;;;;;6063560;23;20431;-88
2022/06/11 01:02:33;;;;;;;5.93;5.50;;;14.90;99.90;;;;;;6063148;23;20454;-88
2022/06/11 01:05:04;;;;;;;6.50;5.50;;;14.80;99.90;;;;;;6062933;23;20473;-87
2022/06/11 01:08:10;;;;;;;5.93;5.40;;;14.80;99.90;;;;;;6063580;23;20812;-87
2022/06/11 01:11:14;;;;;;;6.20;5.70;;;14.80;99.90;;;;;;6063644;23;20439;-88
2022/06/11 01:13:50;;;;;;;5.93;5.43;;;14.70;99.90;;;;;;6063444;23;20446;-87
2022/06/11 01:16:27;;;;;;;6.23;5.70;;;14.70;99.90;;;;;;6063108;23;20470;-86
2022/06/11 01:19:14;;;;;;;5.70;5.20;;;14.60;99.90;;;;;;6062745;23;20764;-88
2022/06/11 01:22:04;;;;;;;6.00;5.43;;;14.60;99.90;;;;;;6063549;23;20709;-88
2022/06/11 01:24:52;;;;;;;6.57;6.00;;;14.60;99.90;;;;;;6062761;23;20506;-88
2022/06/11 01:27:37;;;;;;;8.70;6.10;;;14.50;99.90;;;;;;6062653;23;20431;-88
2022/06/11 01:30:07;;;;;;;5.70;5.20;;;14.50;99.90;;;;;;6063498;23;20443;-88
2022/06/11 01:32:47;;;;;;;6.30;5.70;;;14.50;99.90;;;;;;6037515;23;20545;-88
2022/06/11 01:35:42;;;;;;;6.80;6.20;;;14.50;99.90;;;;;;6062322;23;20470;-88
2022/06/11 01:38:20;;;;;;;6.30;5.80;;;14.50;99.90;;;;;;6037899;23;20862;-88
2022/06/11 01:40:52;;;;;;;6.57;5.90;;;14.40;99.90;;;;;;6038343;23;20521;-88
2022/06/11 01:43:24;;;;;;;8.30;6.00;;;14.40;99.90;;;;;;6064037;23;20525;-88
2022/06/11 01:45:54;;;;;;;6.30;5.80;;;14.30;99.90;;;;;;6063759;23;20497;-88
2022/06/11 01:48:25;;;;;;;6.73;6.20;;;14.30;99.90;;;;;;6064068;23;20438;-88
2022/06/11 01:51:03;;;;;;;6.47;5.97;;;14.30;99.90;;;;;;6063812;23;20526;-88
2022/06/11 01:53:42;;;;;;;7.17;6.03;;;14.30;99.90;;;;;;6064349;23;20474;-88
2022/06/11 01:56:20;;;;;;;6.20;5.70;;;14.30;99.90;;;;;;6063683;23;20463;-88
2022/06/11 01:59:01;;;;;;;7.63;5.60;;;14.20;99.90;;;;;;6038585;23;20470;-86
2022/06/11 02:01:43;;;;;;;7.03;6.43;;;14.20;99.90;;;;;;6063770;23;20463;-86
2022/06/11 02:04:19;;;;;;;6.57;5.97;;;14.20;99.90;;;;;;6063667;23;20553;-86
2022/06/11 02:06:55;;;;;;;7.90;7.10;;;14.10;99.90;;;;;;6063295;23;20431;-86
2022/06/11 02:09:32;;;;;;;8.10;6.50;;;14.10;99.90;;;;;;6064498;23;20442;-85
2022/06/11 02:12:04;;;;;;;6.63;6.03;;;14.10;99.90;;;;;;6063424;23;20447;-86
2022/06/11 02:14:36;;;;;;;7.00;6.50;;;14.10;99.90;;;;;;6062694;23;20459;-86
2022/06/11 02:17:11;;;;;;;6.97;6.37;;;14.10;99.90;;;;;;6063502;23;20443;-88
2022/06/11 02:19:42;;;;;;;9.25;6.30;;;14.00;99.90;;;;;;6063605;23;20442;-88
2022/06/11 02:22:15;;;;;;;8.53;7.03;;;14.00;99.90;;;;;;6064057;23;20220;-88
2022/06/11 02:24:49;;;;;;;6.77;6.17;;;14.00;99.90;;;;;;6063899;23;20565;-88
2022/06/11 02:27:22;;;;;;;7.27;6.57;;;13.90;99.90;;;;;;6063837;23;20483;-88
2022/06/11 02:29:51;;;;;;;7.73;7.03;;;14.00;99.90;;;;;;6063810;23;20521;-87
2022/06/11 02:32:23;;;;;;;6.80;6.20;;;13.90;99.90;;;;;;6064239;23;20447;-88
2022/06/11 02:34:54;;;;;;;6.73;6.13;;;13.90;99.90;;;;;;6064204;23;20549;-88
2022/06/11 02:37:25;;;;;;;6.93;6.30;;;13.90;99.90;;;;;;6063926;23;20474;-86
2022/06/11 02:39:54;;;;;;;7.00;6.20;;;13.90;99.90;;;;;;6064746;23;20581;-86
2022/06/11 02:42:24;;;;;;;6.83;6.33;;;13.90;99.90;;;;;;6064397;23;20436;-85
2022/06/11 02:44:51;;;;;;;6.83;6.20;;;13.90;99.90;;;;;;6063669;23;20470;-86
2022/06/11 02:47:21;;;;;;;7.20;6.50;;;13.80;99.90;;;;;;6063896;23;20971;-86
2022/06/11 02:49:49;;;;;;;6.80;6.30;;;13.80;99.90;;;;;;6063805;23;20469;-86
2022/06/11 02:52:19;;;;;;;6.97;6.37;;;13.80;99.90;;;;;;6064247;23;20645;-86
2022/06/11 02:54:49;;;;;;;6.50;6.10;;;13.80;99.90;;;;;;6063944;23;21026;-86
2022/06/11 02:57:20;;;;;;;6.93;6.23;;;13.70;99.90;;;;;;6064956;23;20518;-86
2022/06/11 02:59:49;;;;;;;6.37;5.97;;;13.70;99.90;;;;;;6064942;23;20489;-87
2022/06/11 03:02:16;;;;;;;6.53;5.93;;;13.70;99.90;;;;;;6064195;23;20497;-86
2022/06/11 03:04:45;;;;;;;6.43;5.93;;;13.70;99.90;;;;;;6063593;23;20467;-86
2022/06/11 03:07:13;;;;;;;6.60;6.10;;;13.70;99.90;;;;;;6063553;23;20518;-86
2022/06/11 03:09:41;;;;;;;6.50;5.93;;;13.70;99.90;;;;;;6063940;23;20977;-86
2022/06/11 03:12:11;;;;;;;6.90;6.40;;;13.60;99.90;;;;;;6063538;23;20447;-86
2022/06/11 03:14:38;;;;;;;6.83;6.23;;;13.60;99.90;;;;;;6063892;23;20494;-87
2022/06/11 03:17:06;;;;;;;7.50;6.80;;;13.60;99.90;;;;;;6063439;23;20501;-86
2022/06/11 03:19:33;;;;;;;6.50;5.90;;;13.60;99.90;;;;;;6063975;23;20463;-87
2022/06/11 03:22:02;;;;;;;6.90;6.30;;;13.60;99.90;;;;;;6063966;23;20562;-87
2022/06/11 03:24:29;;;;;;;7.77;6.97;;;13.60;99.90;;;;;;6064047;23;20471;-87
2022/06/11 03:26:57;;;;;;;7.17;5.87;;;13.60;99.90;;;;;;6063846;23;20432;-87
2022/06/11 03:29:25;;;;;;;6.93;6.33;;;13.60;99.90;;;;;;6065098;23;20470;-87
2022/06/11 03:31:52;;;;;;;6.18;5.50;;;13.50;99.90;;;;;;6063930;23;21025;-86
2022/06/11 03:34:20;;;;;;;5.97;5.47;;;13.50;99.90;;;;;;6064137;23;20212;-87
2022/06/11 03:36:48;;;;;;;6.90;6.30;;;13.50;99.90;;;;;;6063817;23;20522;-87
2022/06/11 03:39:16;;;;;;;8.30;5.83;;;13.60;99.90;;;;;;6064196;23;20867;-87
2022/06/11 03:41:44;;;;;;;6.77;6.17;;;13.60;99.90;;;;;;6064329;23;20436;-87
2022/06/11 03:44:12;;;;;;;7.10;6.50;;;13.60;99.90;;;;;;6064426;23;20493;-87
2022/06/11 03:46:39;;;;;;;6.47;5.73;;;13.60;99.90;;;;;;6064089;23;20479;-87
2022/06/11 03:49:07;;;;;;;8.33;5.50;;;13.60;99.90;;;;;;6064336;23;20493;-87
2022/06/11 03:51:35;;;;;;;6.40;5.80;;;13.60;99.90;;;;;;6064071;23;20648;-87
2022/06/11 03:54:02;;;;;;;6.23;5.73;;;13.70;99.90;;;;;;6064294;23;20501;-87
2022/06/11 03:56:31;;;;;;;5.73;5.23;;;13.70;99.90;;;;;;6064114;23;20922;-87
2022/06/11 03:58:58;;;;;;;8.13;6.20;;;13.80;99.90;;;;;;6064489;23;20427;-86
2022/06/11 04:01:28;;;;;;;5.83;5.37;;;13.80;99.90;;;;;;6038550;23;20454;-87
2022/06/11 04:03:58;;;;;;;7.17;6.40;;;13.90;99.90;;;;;;6063814;23;20474;-87
2022/06/11 04:06:29;;;;;;;5.87;5.47;;;13.90;99.90;;;;;;6063919;23;20467;-87
2022/06/11 04:08:56;;;;;;;6.20;5.70;;;13.80;99.90;;;;;;6064678;23;20471;-87
2022/06/11 04:11:23;;;;;;;6.17;5.20;;;13.80;99.90;;;;;;6064019;23;20497;-87
2022/06/11 04:13:53;;;;;;;6.33;5.83;;;13.80;99.90;;;;;;6064454;23;21080;-88
2022/06/11 04:16:25;;;;;;;6.63;6.03;;;13.90;99.90;;;;;;6038656;23;21001;-87
2022/06/11 04:18:53;;;;;;;5.73;5.27;;;13.90;99.90;;;;;;6063892;23;20514;-87
2022/06/11 04:21:21;;;;;;;5.80;5.20;;;13.90;99.90;;;;;;6064072;23;20435;-88
2022/06/11 04:23:51;;;;;;;5.80;5.20;;;13.90;99.90;;;;;;6063955;23;20855;-87
2022/06/11 04:26:22;;;;;;;6.40;5.80;;;13.90;99.90;;;;;;6064007;23;20523;-87
2022/06/11 04:28:49;;;;;;;6.47;5.40;;;14.00;99.90;;;;;;6064360;23;20435;-87
2022/06/11 04:31:18;;;;;;;5.33;4.93;;;14.00;99.90;;;;;;6064160;23;20502;-87
2022/06/11 04:33:48;;;;;;;6.73;6.10;;;13.90;99.90;;;;;;6063869;23;20471;-87
2022/06/11 04:36:16;;;;;;;6.20;5.50;;;14.00;99.90;;;;;;6063626;23;20447;-87
2022/06/11 04:38:44;;;;;;;7.40;5.30;;;14.10;99.90;;;;;;6063694;23;20447;-87
2022/06/11 04:41:12;;;;;;;5.83;5.33;;;14.10;99.90;;;;;;6064387;23;20833;-88
2022/06/11 04:43:39;;;;;;;5.37;4.97;;;14.10;99.90;;;;;;6063951;23;20455;-87
2022/06/11 04:46:06;;;;;;;5.17;4.77;;;14.20;99.90;;;;;;6063801;23;20509;-87
2022/06/11 04:48:35;;;;;;;6.00;5.40;;;14.20;99.90;;;;;;6064072;23;20518;-87
2022/06/11 04:51:03;;;;;;;6.80;4.80;;;14.30;99.90;;;;;;6063893;23;20463;-87
2022/06/11 04:53:30;;;;;;;5.50;5.10;;;14.30;99.90;;;;;;6063576;23;20945;-87
2022/06/11 04:55:57;;;;;;;5.70;5.10;;;14.40;99.90;;;;;;6038870;23;20444;-87
2022/06/11 04:58:24;;;;;;;5.03;4.63;;;14.40;99.90;;;;;;6064031;23;20443;-87
2022/06/11 05:00:52;;;;;;;5.67;5.17;;;14.50;99.90;;;;;;6038923;23;20450;-87
2022/06/11 05:03:19;;;;;;;5.40;4.97;;;14.60;99.90;;;;;;6064270;23;20474;-87
2022/06/11 05:05:48;;;;;;;5.73;5.30;;;14.60;99.90;;;;;;6063351;23;20561;-87
2022/06/11 05:08:16;;;;;;;5.77;5.20;;;14.70;99.90;;;;;;6063534;23;20527;-87
2022/06/11 05:10:44;;;;;;;5.40;4.70;;;14.80;99.90;;;;;;6064123;23;20436;-87
2022/06/11 05:13:12;;;;;;;4.73;4.33;;;14.90;99.90;;;;;;6063544;23;20522;-87
2022/06/11 05:15:41;;;;;;;5.73;5.30;;;15.00;99.90;;;;;;6064287;23;20469;-88
2022/06/11 05:18:08;;;;;;;5.00;4.60;;;15.00;99.90;;;;;;6038468;23;20456;-87
2022/06/11 05:20:35;;;;;;;5.17;4.77;;;15.20;99.90;;;;;;6069452;23;20483;-79
2022/06/11 05:23:05;;;;;;;4.80;4.50;;;15.20;99.90;;;;;;6063828;23;20471;-79
2022/06/11 05:25:34;;;;;;;4.60;4.30;;;15.40;99.90;;;;;;6063237;23;20550;-79
2022/06/11 05:28:02;;;;;;;4.77;4.27;;;15.50;99.90;;;;;;6063651;23;20791;-79
2022/06/11 05:30:31;;;;;;;4.97;4.57;;;15.60;99.90;;;;;;6063307;23;20526;-78
2022/06/11 05:33:00;;;;;;;5.30;4.90;;;15.70;99.90;;;;;;6063441;23;20439;-79
2022/06/11 05:35:29;;;;;;;5.27;4.83;;;15.80;99.90;;;;;;6063282;23;20965;-78
2022/06/11 05:38:00;;;;;;;5.40;5.00;;;15.80;99.90;;;;;;6063783;23;20443;-79
2022/06/11 05:40:31;;;;;;;5.60;5.20;;;15.90;99.90;;;;;;6063940;23;20424;-78
2022/06/11 05:42:58;;;;;;;5.53;4.17;;;16.00;99.90;;;;;;6063654;23;20440;-80
2022/06/11 05:45:28;;;;;;;4.60;4.27;;;16.10;99.90;;;;;;6064117;23;20538;-79
2022/06/11 05:47:57;;;;;;;4.40;4.00;;;16.20;99.90;;;;;;6064783;23;20433;-78
2022/06/11 05:50:27;;;;;;;4.87;4.03;;;16.20;99.90;;;;;;6063669;23;20474;-79
2022/06/11 05:52:57;;;;;;;5.50;4.00;;;16.30;99.90;;;;;;6063544;23;20934;-79
2022/06/11 05:55:29;;;;;;;4.37;3.97;;;16.30;99.90;;;;;;6063446;23;20522;-79
2022/06/11 05:57:59;;;;;;;4.10;3.70;;;16.40;99.90;;;;;;6063081;23;20453;-79
2022/06/11 06:00:28;;;;;;;4.50;4.20;;;16.60;99.90;;;;;;6063497;23;20451;-79
2022/06/11 06:02:56;;;;;;;4.23;3.83;;;16.70;99.90;;;;;;6038156;23;21025;-79
2022/06/11 06:05:26;;;;;;;4.67;4.27;;;16.80;99.90;;;;;;6062904;23;20556;-79
2022/06/11 06:07:53;;;;;;;4.20;3.90;;;16.90;99.90;;;;;;6064124;23;20473;-79
2022/06/11 06:10:23;;;;;;;5.00;4.53;;;17.00;99.90;;;;;;6062875;23;20445;-79
2022/06/11 06:12:52;;;;;;;4.17;3.87;;;17.20;99.90;;;;;;6063479;23;20480;-79
2022/06/11 06:15:22;;;;;;;4.33;4.03;;;17.30;99.90;;;;;;6063222;23;20463;-81
2022/06/11 06:17:51;;;;;;;5.27;3.90;;;17.40;99.90;;;;;;6038176;23;20415;-79
2022/06/11 06:20:20;;;;;;;4.20;3.80;;;17.50;99.90;;;;;;6062715;23;20450;-79
2022/06/11 06:22:48;;;;;;;3.90;3.50;;;17.50;99.90;;;;;;6063090;23;20439;-79
2022/06/11 06:25:18;;;;;;;4.93;4.20;;;17.60;99.90;;;;;;6063607;23;20479;-79
2022/06/11 06:27:45;;;;;;;3.80;3.50;;;17.70;99.90;;;;;;6064747;23;20466;-79
2022/06/11 06:30:14;;;;;;;3.87;3.57;;;17.80;99.90;;;;;;6064661;23;20439;-79
2022/06/11 06:32:41;;;;;;;4.00;3.57;;;17.90;99.90;;;;;;6064786;23;20481;-79
2022/06/11 06:35:09;;;;;;;4.03;3.73;;;18.00;99.90;;;;;;6064307;23;20497;-79
2022/06/11 06:37:35;;;;;;;3.73;3.27;;;18.10;99.90;;;;;;6063808;23;20957;-79
2022/06/11 06:40:03;;;;;;;3.53;3.23;;;18.20;99.90;;;;;;6064605;23;20446;-79
2022/06/11 06:42:30;;;;;;;4.57;3.10;;;18.40;99.90;;;;;;6064649;23;20439;-79
2022/06/11 06:44:58;;;;;;;3.60;3.30;;;18.50;99.90;;;;;;6064617;23;20470;-79
2022/06/11 06:47:27;;;;;;;3.67;3.40;;;18.60;99.90;;;;;;6064480;23;20510;-79
2022/06/11 06:49:54;;;;;;;3.67;3.37;;;18.90;99.90;;;;;;6064081;23;20462;-79
2022/06/11 06:52:22;;;;;;;3.70;3.37;;;19.00;99.90;;;;;;6064877;23;20439;-79
2022/06/11 06:54:49;;;;;;;4.33;3.50;;;19.10;99.90;;;;;;6064615;23;20538;-79
2022/06/11 06:57:16;;;;;;;4.63;2.77;;;19.30;99.90;;;;;;6038615;23;20450;-80
2022/06/11 06:59:43;;;;;;;3.33;3.03;;;19.40;99.90;;;;;;6064581;23;20439;-79
2022/06/11 07:02:11;;;;;;;3.50;3.20;;;19.60;99.90;;;;;;6064567;23;20514;-79
2022/06/11 07:04:39;;;;;;;3.77;3.47;;;19.90;99.90;;;;;;6063874;23;20455;-80
2022/06/11 07:07:06;;;;;;;4.40;3.43;;;20.10;99.90;;;;;;6064327;23;20523;-80
2022/06/11 07:09:34;;;;;;;4.93;4.20;;;20.30;99.90;;;;;;6064094;23;20466;-79
2022/06/11 07:12:02;;;;;;;3.30;2.97;;;20.50;99.90;;;;;;6064582;23;20465;-79
2022/06/11 07:14:29;;;;;;;3.23;2.93;;;20.60;99.90;;;;;;6064470;23;20493;-79
2022/06/11 07:17:02;;;;;;;3.73;3.30;;;20.80;99.90;;;;;;6064551;23;20474;-79
2022/06/11 07:19:33;;;;;;;3.70;3.00;;;21.00;99.90;;;;;;6064948;23;20470;-79
2022/06/11 07:22:08;;;;;;;3.67;3.27;;;21.10;99.90;;;;;;6063624;23;20821;-79
2022/06/11 07:24:38;;;;;;;3.90;3.10;;;21.20;99.90;;;;;;6064134;23;21026;-80
2022/06/11 07:27:09;;;;;;;3.93;3.43;;;21.30;99.90;;;;;;6064255;23;20431;-79
2022/06/11 07:29:42;;;;;;;3.33;3.10;;;21.50;99.90;;;;;;6064567;23;20427;-80
2022/06/11 07:32:14;;;;;;;3.67;3.47;;;21.70;99.90;;;;;;6064629;23;20439;-80
2022/06/11 07:34:44;;;;;;;4.67;2.80;;;21.90;99.90;;;;;;6038347;23;20510;-79
2022/06/11 07:37:13;;;;;;;4.23;2.43;;;22.20;99.90;;;;;;6063759;23;20857;-80
2022/06/11 07:39:40;;;;;;;3.50;2.60;;;22.60;99.90;;;;;;6064870;23;20714;-79
2022/06/11 07:42:08;;;;;;;3.30;3.00;;;23.00;99.90;;;;;;6063771;23;20489;-80
2022/06/11 07:44:36;;;;;;;3.83;2.90;;;23.40;99.90;;;;;;6064355;23;20863;-80
2022/06/11 07:47:03;;;;;;;2.57;2.37;;;23.90;99.90;;;;;;6063763;23;20439;-80
2022/06/11 07:49:30;;;;;;;3.03;2.50;;;24.60;99.90;;;;;;6064134;23;20450;-80
2022/06/11 07:51:57;;;;;;;3.70;3.00;;;25.30;99.90;;;;;;6063828;23;20490;-80
2022/06/11 07:54:25;;;;;;;4.27;3.10;;;26.00;99.90;;;;;;6064044;23;20463;-80
2022/06/11 07:56:52;;;;;;;3.03;2.60;;;26.60;99.30;;;;;;6063924;23;20436;-80
2022/06/11 07:59:19;;;;;;;2.93;2.40;;;27.10;97.90;;;;;;6064130;23;20514;-80
2022/06/11 08:01:46;;;;;;;3.10;2.90;;;27.50;96.90;;;;;;6064125;23;20954;-80
2022/06/11 08:04:13;;;;;;;3.20;2.77;;;28.00;95.90;;;;;;6063781;23;21062;-80
2022/06/11 08:06:40;;;;;;;3.07;2.77;;;28.60;94.60;;;;;;6063848;23;20550;-79
2022/06/11 08:09:07;;;;;;;3.57;2.63;;;28.70;93.40;;;;;;6063642;23;20435;-80
2022/06/11 08:11:37;;;;;;;2.77;2.53;;;29.20;91.80;;;;;;6063949;23;20444;-80
2022/06/11 08:14:05;;;;;;;3.20;2.90;;;29.50;91.00;;;;;;6064351;23;20455;-80
2022/06/11 08:16:32;;;;;;;2.90;2.33;;;29.40;91.30;;;;;;6062953;23;20467;-80
2022/06/11 08:18:59;;;;;;;2.30;2.10;;;29.50;89.80;;;;;;6064049;23;20436;-80
2022/06/11 08:21:26;;;;;;;4.33;2.43;;;29.60;87.00;;;;;;6063930;23;20444;-80
2022/06/11 08:23:53;;;;;;;2.30;2.10;;;30.00;84.40;;;;;;6063964;23;21025;-80
2022/06/11 08:26:20;;;;;;;4.23;2.73;;;30.00;84.50;;;;;;6063779;23;20557;-79
2022/06/11 08:28:49;;;;;;;3.47;2.30;;;30.20;83.60;;;;;;6064314;23;20467;-80
2022/06/11 08:31:15;;;;;;;3.70;2.67;;;30.80;82.70;;;;;;6064490;23;20471;-80
2022/06/11 08:33:43;;;;;;;2.60;1.80;;;31.40;80.40;;;;;;6064070;23;20455;-80
2022/06/11 08:36:10;;;;;;;2.90;2.10;;;32.00;76.40;;;;;;6063581;23;20482;-80
2022/06/11 08:38:37;;;;;;;2.97;1.80;;;31.90;75.50;;;;;;6064125;23;20573;-80
2022/06/11 08:41:16;;;;;;;3.50;2.10;;;32.40;72.80;;;;;;6063914;23;20465;-80
2022/06/11 08:43:51;;;;;;;3.30;1.93;;;32.70;70.00;;;;;;6064216;23;20546;-80
2022/06/11 08:46:22;;;;;;;2.53;2.03;;;33.10;70.80;;;;;;6063254;23;20553;-80
2022/06/11 08:49:02;;;;;;;2.30;1.70;;;33.00;67.80;;;;;;6064015;23;20432;-80
2022/06/11 08:51:36;;;;;;;2.80;2.10;;;33.40;67.90;;;;;;6063717;23;20435;-80
2022/06/11 08:54:07;;;;;;;3.23;1.97;;;33.20;67.50;;;;;;6063502;23;20533;-80
2022/06/11 08:56:41;;;;;;;2.07;1.93;;;33.00;68.40;;;;;;6063321;23;21097;-80
2022/06/11 08:59:24;;;;;;;2.23;1.60;;;33.30;66.90;;;;;;6063032;23;20511;-80
2022/06/11 09:02:01;;;;;;;1.73;1.60;;;33.30;62.90;;;;;;6063399;23;20439;-80
2022/06/11 09:04:49;;;;;;;2.30;1.50;;;33.40;62.70;;;;;;6063154;23;20996;-80
2022/06/11 09:07:30;;;;;;;1.60;1.40;;;33.70;61.10;;;;;;6037295;23;20485;-80
2022/06/11 09:10:10;;;;;;;2.13;1.40;;;33.50;59.20;;;;;;6063885;23;20461;-80
2022/06/11 09:12:57;;;;;;;2.70;1.50;;;34.10;56.00;;;;;;6064158;23;21006;-80
2022/06/11 09:15:37;;;;;;;1.83;1.50;;;34.30;56.60;;;;;;6062769;23;20518;-80
2022/06/11 09:18:30;;;;;;;2.13;1.57;;;34.30;55.00;;;;;;6063925;23;20942;-80
2022/06/11 09:21:06;;;;;;;2.23;1.50;;;34.20;55.20;;;;;;6064405;23;20520;-80
2022/06/11 09:24:09;;;;;;;2.70;1.93;;;34.10;55.20;;;;;;6064320;23;20534;-80
2022/06/11 09:26:44;;;;;;;3.27;1.83;;;34.00;54.30;;;;;;6064376;23;20478;-80
2022/06/11 09:29:14;;;;;;;1.90;1.50;;;34.00;55.70;;;;;;6064313;23;20427;-80
2022/06/11 09:31:47;;;;;;;1.90;1.67;;;33.90;55.70;;;;;;6039267;23;20441;-81
2022/06/11 09:34:24;;;;;;;3.03;1.77;;;34.40;55.40;;;;;;6064999;23;20455;-80
2022/06/11 09:37:02;;;;;;;2.80;1.80;;;34.80;55.20;;;;;;6064087;23;20424;-80
2022/06/11 09:39:39;;;;;;;2.50;2.03;;;34.80;54.50;;;;;;6064488;23;20438;-80
2022/06/11 09:42:23;;;;;;;2.80;1.63;;;35.10;53.20;;;;;;6063298;23;20854;-80
2022/06/11 09:44:56;;;;;;;2.80;1.87;;;35.50;52.00;;;;;;6063541;23;20475;-80
2022/06/11 09:47:30;;;;;;;1.70;1.50;;;34.50;51.70;;;;;;6063850;23;20470;-80
2022/06/11 09:50:09;;;;;;;2.77;1.90;;;33.70;52.70;;;;;;6063843;23;20439;-80
2022/06/11 09:52:42;;;;;;;3.63;2.20;;;33.30;54.20;;;;;;6063935;23;20510;-79
2022/06/11 09:55:22;;;;;;;2.93;1.90;;;32.80;56.20;;;;;;6063279;23;20530;-80
2022/06/11 09:57:55;;;;;;;2.63;2.03;;;33.20;55.60;;;;;;6063881;23;20427;-80
2022/06/11 10:00:26;;;;;;;2.23;1.80;;;33.00;54.20;;;;;;6065283;23;20439;-80
2022/06/11 10:03:09;;;;;;;2.13;1.80;;;33.70;55.50;;;;;;6064974;23;20753;-80
2022/06/11 10:05:44;;;;;;;3.63;2.20;;;34.30;54.10;;;;;;6064407;23;20490;-79
2022/06/11 10:08:21;;;;;;;3.57;2.20;;;34.70;54.50;;;;;;6065398;23;20422;-80
2022/06/11 10:10:51;;;;;;;2.20;1.70;;;35.20;52.50;;;;;;6065679;23;20435;-80
2022/06/11 10:13:31;;;;;;;3.00;1.60;;;34.60;52.00;;;;;;6064833;23;20477;-80
2022/06/11 10:16:06;;;;;;;2.37;1.80;;;33.60;52.40;;;;;;6064507;23;20846;-80
2022/06/11 10:18:36;;;;;;;3.50;1.80;;;33.50;52.60;;;;;;6064864;23;20436;-80
2022/06/11 10:21:11;;;;;;;2.47;1.90;;;33.10;53.40;;;;;;6064899;23;20531;-80
2022/06/11 10:23:45;;;;;;;2.63;1.93;;;33.30;53.90;;;;;;6065427;23;20512;-80
2022/06/11 10:26:18;;;;;;;3.50;1.83;;;33.70;53.60;;;;;;6064223;23;20819;-80
2022/06/11 10:28:52;;;;;;;2.47;2.13;;;33.20;52.80;;;;;;6062237;23;20503;-80
2022/06/11 10:31:25;;;;;;;6.07;2.20;;;32.90;52.70;;;;;;6064635;23;20434;-80
2022/06/11 10:33:57;;;;;;;2.60;1.80;;;32.70;53.30;;;;;;6065194;23;20479;-80
2022/06/11 10:36:31;;;;;;;2.20;1.70;;;32.50;53.40;;;;;;6064606;23;20841;-80
2022/06/11 10:39:02;;;;;;;2.53;1.97;;;32.60;54.50;;;;;;6065059;23;20431;-80
2022/06/11 10:41:41;;;;;;;2.30;2.10;;;32.60;54.80;;;;;;6064838;23;20444;-80
2022/06/11 10:44:20;;;;;;;1.70;1.60;;;32.40;53.40;;;;;;6065556;23;20531;-80
2022/06/11 10:46:47;;;;;;;2.70;1.90;;;31.30;55.40;;;;;;6064747;23;20546;-80
2022/06/11 10:49:18;;;;;;;2.50;2.10;;;31.00;56.50;;;;;;6066895;23;20459;-80
2022/06/11 10:51:57;;;;;;;2.70;1.70;;;31.20;55.90;;;;;;6066251;23;20957;-80
2022/06/11 10:54:26;;;;;;;2.37;2.13;;;31.40;56.00;;;;;;6065329;23;20521;-80
2022/06/11 10:56:58;;;;;;;2.23;1.80;;;31.80;55.20;;;;;;6064409;23;20482;-81
2022/06/11 10:59:30;;;;;;;4.23;2.20;;;31.70;55.00;;;;;;6078376;23;20474;-94
2022/06/11 11:02:03;;;;;;;3.33;2.50;;;31.20;56.20;;;;;;6067549;23;20439;-83
2022/06/11 12:26:30;;;;;;;3.60;2.10;;;31.70;57.50;;;;;;6154551;23;20583;-80
2022/06/11 12:29:02;;;;;;;4.43;2.27;;;32.00;57.00;;;;;;6151565;23;20463;-80
2022/06/11 16:05:20;;;;;;;3.00;2.30;;;31.70;50.10;;;;;;6180035;22;20571;-77
2022/06/11 16:07:50;;;;;;;2.80;2.60;;;30.80;51.20;;;;;;6168257;23;20446;-87
2022/06/11 16:10:20;;;;;;;2.70;2.50;;;30.40;52.20;;;;;;6190134;23;20438;-77
2022/06/11 16:12:48;;;;;;;2.73;2.23;;;30.10;52.90;;;;;;6159847;23;20452;-76
2022/06/11 16:15:17;;;;;;;3.47;2.43;;;29.90;53.10;;;;;;6153602;23;20435;-77
2022/06/11 16:17:47;;;;;;;3.00;1.90;;;29.80;54.00;;;;;;6172789;23;20442;-85
2022/06/11 16:20:37;;;;;;;3.17;2.10;;;29.70;54.30;;;;;;6155364;23;20452;-77
2022/06/11 16:23:17;;;;;;;2.10;1.90;;;29.70;54.30;;;;;;6147632;23;20868;-76
2022/06/11 16:25:46;;;;;;;3.20;2.10;;;29.60;54.80;;;;;;6150729;23;20432;-79
2022/06/11 16:28:19;;;;;;;2.53;2.03;;;29.40;54.20;;;;;;6152819;23;20544;-76
2022/06/11 16:30:47;;;;;;;2.33;2.10;;;29.00;55.30;;;;;;6153770;23;20487;-77
2022/06/11 16:33:17;;;;;;;2.33;2.10;;;28.90;55.70;;;;;;6151668;23;20436;-77
2022/06/11 16:35:49;;;;;;;2.90;2.10;;;28.90;55.50;;;;;;6166813;23;20494;-77
2022/06/11 16:38:53;;;;;;;3.07;2.07;;;28.80;55.90;;;;;;6155864;23;20459;-77
2022/06/11 16:44:06;;;;;;;2.30;2.10;;;28.60;56.10;;;;;;6153011;23;20510;-76
2022/06/11 16:46:33;;;;;;;1.93;1.83;;;28.40;57.00;;;;;;6156409;23;20519;-76
2022/06/11 16:49:00;;;;;;;3.10;2.23;;;28.30;57.80;;;;;;6154632;23;20856;-76
2022/06/11 16:56:59;;;;;;;6.70;2.70;;;28.40;58.10;;;;;;6108114;23;20438;-76
2022/06/11 16:59:40;;;;;;;2.40;2.13;;;28.40;58.30;;;;;;6152239;23;20443;-76
2022/06/11 17:05:09;;;;;;;4.57;2.10;;;28.50;58.10;;;;;;6153789;23;20483;-76
2022/06/11 17:07:40;;;;;;;5.57;2.43;;;28.40;57.90;;;;;;6152408;23;20837;-76
2022/06/11 17:10:08;;;;;;;3.50;2.40;;;28.40;58.50;;;;;;6154660;23;20432;-77
2022/06/11 17:12:41;;;;;;;2.80;2.20;;;28.40;58.60;;;;;;6153546;23;20552;-77
2022/06/11 17:15:20;;;;;;;2.70;2.27;;;28.40;58.50;;;;;;6152340;23;20433;-77
2022/06/11 17:17:50;;;;;;;2.30;2.10;;;28.40;58.60;;;;;;6145841;23;20448;-78
2022/06/11 17:20:32;;;;;;;2.53;2.03;;;28.30;58.40;;;;;;6148244;23;20500;-79
2022/06/11 17:23:03;;;;;;;2.97;2.23;;;28.30;58.50;;;;;;6145746;23;20476;-77
2022/06/11 17:25:36;;;;;;;2.23;2.03;;;28.20;58.70;;;;;;6153571;23;20459;-79
2022/06/11 17:28:03;;;;;;;2.83;2.40;;;28.10;58.60;;;;;;6170142;23;20516;-78
2022/06/11 17:30:33;;;;;;;2.30;2.10;;;28.20;58.90;;;;;;6157602;23;20440;-79
2022/06/11 17:33:02;;;;;;;2.13;2.00;;;28.10;59.00;;;;;;6148300;23;20863;-81
2022/06/11 17:35:29;;;;;;;3.10;2.30;;;28.00;58.80;;;;;;6154933;23;20531;-78
2022/06/11 17:37:57;;;;;;;2.60;2.30;;;27.90;59.60;;;;;;6155340;23;21101;-80
2022/06/11 17:40:28;;;;;;;2.10;1.90;;;27.80;59.70;;;;;;6166538;23;20435;-79
2022/06/11 17:42:56;;;;;;;2.30;2.10;;;27.70;60.00;;;;;;6168875;23;20446;-78
2022/06/11 17:45:25;;;;;;;2.10;2.00;;;27.70;60.20;;;;;;6149147;23;20535;-79
2022/06/11 17:47:53;;;;;;;2.60;2.40;;;27.70;60.20;;;;;;6147454;23;20745;-79
2022/06/11 17:50:23;;;;;;;3.30;2.40;;;27.60;60.00;;;;;;6156758;23;20471;-83
2022/06/11 17:52:56;;;;;;;2.23;2.10;;;27.50;60.70;;;;;;6153571;23;20502;-78
2022/06/11 17:55:26;;;;;;;2.70;2.30;;;27.50;61.00;;;;;;6152213;23;20437;-77
2022/06/11 17:57:55;;;;;;;3.33;3.03;;;27.40;61.10;;;;;;6136446;23;20455;-77
2022/06/11 18:00:27;;;;;;;2.90;2.50;;;27.30;62.10;;;;;;6129644;23;20515;-81
2022/06/11 18:03:02;;;;;;;3.20;2.60;;;27.30;61.50;;;;;;6142819;23;20428;-80
2022/06/11 18:05:32;;;;;;;2.40;2.20;;;27.10;61.70;;;;;;6144603;23;20539;-78
2022/06/11 18:08:01;;;;;;;2.80;2.60;;;27.10;61.90;;;;;;6148505;23;20433;-78
2022/06/11 18:10:34;;;;;;;3.10;2.63;;;27.00;62.30;;;;;;6136789;23;21135;-78
2022/06/11 18:13:03;;;;;;;3.17;2.83;;;27.00;62.90;;;;;;6159800;23;20432;-77
2022/06/11 18:15:34;;;;;;;2.67;2.47;;;26.90;62.60;;;;;;6141035;23;20632;-78